Time;durP1;ratioP1;P1;durP2;ratioP2;P2;SDS_P1;SDS_P2;PMS_P1;PMS_P2;Temp;Humidity;BMP_temperature;BMP_pressure;BME280_temperature;BME280_humidity;BME280_pressure;Samples;Min_cycle;Max_cycle;Signal;HPM_P1;HPM_P2
2022/03/17 00:01:38;;;;;;;11.60;6.90;;;;;;;5.64;84.47;101728.41;107779;1279;60042;-74
2022/03/17 00:04:05;;;;;;;15.70;9.30;;;;;;;5.62;84.60;101729.56;107653;1281;75330;-74
2022/03/17 00:06:35;;;;;;;16.40;9.70;;;;;;;5.62;84.58;101728.73;107796;1279;72248;-74
2022/03/17 00:09:04;;;;;;;15.50;9.10;;;;;;;5.62;84.74;101729.39;107448;1282;72235;-74
2022/03/17 00:11:37;;;;;;;15.70;8.40;;;;;;;5.63;84.75;101729.72;107521;1282;61491;-76
2022/03/17 00:14:04;;;;;;;13.40;7.70;;;;;;;5.63;84.72;101731.09;107765;1279;59512;-76
2022/03/17 00:16:34;;;;;;;12.60;8.40;;;;;;;5.64;84.70;101734.92;107779;1279;74087;-75
2022/03/17 00:19:07;;;;;;;14.30;8.40;;;;;;;5.63;84.74;101730.41;107748;1279;70744;-73
2022/03/17 00:21:46;;;;;;;12.70;7.80;;;;;;;5.63;84.74;101727.78;107697;1279;72755;-74
2022/03/17 00:24:13;;;;;;;12.90;8.20;;;;;;;5.62;84.88;101725.86;107731;1279;62201;-75
2022/03/17 00:26:40;;;;;;;13.60;7.80;;;;;;;5.62;84.69;101726.94;107715;1279;61061;-75
2022/03/17 00:29:09;;;;;;;14.00;9.10;;;;;;;5.62;84.75;101728.69;107538;1281;73913;-74
2022/03/17 00:31:37;;;;;;;17.10;9.20;;;;;;;5.62;84.74;101728.16;107737;1279;72463;-74
2022/03/17 00:34:08;;;;;;;16.10;9.20;;;;;;;5.62;84.91;101720.66;107779;1279;74033;-74
2022/03/17 00:36:52;;;;;;;;;;;;;;;;;;;;;
2022/03/17 00:39:19;;;;;;;15.80;8.30;;;;;;;5.63;85.02;101711.30;107763;1279;60672;-74
2022/03/17 00:42:06;;;;;;;16.50;9.20;;;;;;;5.63;84.92;101708.63;107759;1279;73927;-74
2022/03/17 00:44:32;;;;;;;17.50;8.80;;;;;;;5.63;84.82;101708.34;107502;1281;72443;-74
2022/03/17 00:47:01;;;;;;;14.10;7.90;;;;;;;5.61;84.97;101703.70;107744;1279;74038;-74
2022/03/17 00:49:28;;;;;;;18.60;9.40;;;;;;;5.60;84.75;101702.59;107709;1279;62192;-75
2022/03/17 00:51:57;;;;;;;19.40;9.60;;;;;;;5.59;84.83;101698.95;107749;1279;59407;-74
2022/03/17 00:54:23;;;;;;;18.00;9.50;;;;;;;5.56;84.83;101694.61;107796;1279;73860;-74
2022/03/17 00:56:50;;;;;;;19.10;9.80;;;;;;;5.55;84.78;101684.01;107494;1282;70533;-73
2022/03/17 00:59:38;;;;;;;16.40;9.80;;;;;;;5.54;84.92;101685.48;107506;1281;73003;-74
2022/03/17 01:02:28;;;;;;;14.30;8.80;;;;;;;5.52;84.93;101690.20;107740;1281;62171;-74
2022/03/17 01:05:01;;;;;;;18.60;9.40;;;;;;;5.50;85.11;101693.46;107679;1281;60041;-74
2022/03/17 01:07:27;;;;;;;18.80;10.00;;;;;;;5.50;85.01;101697.89;107717;1279;75208;-74
2022/03/17 01:09:56;;;;;;;18.60;9.60;;;;;;;5.49;85.23;101702.14;107544;1280;71396;-74
2022/03/17 01:12:23;;;;;;;18.30;10.50;;;;;;;5.49;85.17;101708.45;107788;1279;72989;-74
2022/03/17 01:14:50;;;;;;;18.00;9.80;;;;;;;5.49;85.36;101707.45;107688;1280;61471;-74
2022/03/17 01:17:17;;;;;;;19.90;10.90;;;;;;;5.48;85.25;101706.77;107774;1279;61768;-74
2022/03/17 01:19:43;;;;;;;19.60;9.90;;;;;;;5.47;85.11;101706.85;107731;1279;74272;-74
2022/03/17 01:22:22;;;;;;;;;;;;;;;;;;;;;
2022/03/17 01:25:08;;;;;;;17.30;10.70;;;;;;;5.45;85.03;101706.84;107633;1281;74067;-74
2022/03/17 01:27:58;;;;;;;;;;;;;;;;;;;;;
2022/03/17 01:30:25;;;;;;;19.20;11.20;;;;;;;5.44;85.14;101711.52;107752;1279;60810;-75
2022/03/17 01:33:10;;;;;;;18.10;10.40;;;;;;;5.42;85.01;101706.38;107568;1281;74485;-75
2022/03/17 01:35:37;;;;;;;;;;;;;;;5.40;84.98;101706.34;107655;1281;72192;-75
2022/03/17 01:38:07;;;;;;;16.40;10.20;;;;;;;5.38;85.22;101707.92;107736;1279;74140;-75
2022/03/17 01:40:33;;;;;;;20.10;10.70;;;;;;;5.37;85.32;101707.52;107750;1279;62804;-74
2022/03/17 01:43:00;;;;;;;18.30;10.10;;;;;;;5.34;85.42;101706.31;107728;1279;60209;-74
2022/03/17 01:45:27;;;;;;;19.80;11.00;;;;;;;5.33;85.40;101707.10;107489;1281;74090;-74
2022/03/17 01:47:57;;;;;;;20.60;11.60;;;;;;;5.31;85.77;101706.13;107450;1281;71623;-75
2022/03/17 01:50:24;;;;;;;19.40;10.40;;;;;;;5.31;85.69;101704.05;107765;1279;73290;-74
2022/03/17 01:52:51;;;;;;;15.90;9.30;;;;;;;5.29;85.59;101706.98;107702;1279;61671;-74
2022/03/17 01:55:21;;;;;;;21.40;12.10;;;;;;;5.28;86.12;101709.02;107477;1281;61643;-74
2022/03/17 01:57:49;;;;;;;17.10;10.20;;;;;;;5.27;86.12;101713.66;107439;1281;76451;-74
2022/03/17 02:00:18;;;;;;;21.90;13.00;;;;;;;5.26;86.39;101710.02;107649;1281;71468;-74
2022/03/17 02:02:50;;;;;;;18.60;10.20;;;;;;;5.26;86.37;101706.70;107685;1279;73024;-75
2022/03/17 02:05:18;;;;;;;22.90;12.90;;;;;;;5.27;86.68;101706.63;107692;1281;62934;-74
2022/03/17 02:07:53;;;;;;;23.80;12.10;;;;;;;5.27;86.51;101695.71;107702;1280;60594;-74
2022/03/17 02:10:21;;;;;;;19.30;11.50;;;;;;;5.28;86.47;101689.34;107683;1281;74291;-74
2022/03/17 02:15:34;;;;;;;19.60;11.30;;;;;;;5.29;86.90;101678.95;107519;1281;74002;-74
2022/03/17 02:18:06;;;;;;;25.00;13.80;;;;;;;5.29;87.00;101676.86;107481;1281;61442;-74
2022/03/17 02:20:33;;;;;;;26.30;14.10;;;;;;;5.28;86.97;101671.67;107488;1282;61439;-74
2022/03/17 02:25:54;;;;;;;22.90;12.80;;;;;;;5.26;87.05;101672.29;107721;1281;70151;-74
2022/03/17 02:28:22;;;;;;;23.30;12.50;;;;;;;5.26;87.58;101672.83;107491;1279;73428;-74
2022/03/17 02:30:49;;;;;;;27.70;12.40;;;;;;;5.25;87.43;101671.00;107681;1281;61537;-74
2022/03/17 02:33:19;;;;;;;21.00;11.90;;;;;;;5.25;87.71;101676.80;107698;1279;63323;-73
2022/03/17 02:35:47;;;;;;;22.90;12.70;;;;;;;5.24;87.46;101673.39;107682;1281;74224;-74
2022/03/17 02:38:14;;;;;;;21.60;12.40;;;;;;;5.24;87.02;101670.76;107387;1281;72975;-74
2022/03/17 02:40:43;;;;;;;23.30;11.60;;;;;;;5.23;87.38;101672.23;107498;1281;73687;-74
2022/03/17 02:43:11;;;;;;;20.00;12.20;;;;;;;5.22;87.50;101661.75;107700;1281;60287;-74
2022/03/17 02:45:37;;;;;;;20.20;10.70;;;;;;;5.21;87.56;101654.45;107507;1281;61035;-74
2022/03/17 02:48:05;;;;;;;21.90;12.90;;;;;;;5.20;87.73;101654.33;107637;1282;75361;-74
2022/03/17 02:50:54;;;;;;;23.90;13.50;;;;;;;5.19;87.51;101653.59;107668;1281;71534;-74
2022/03/17 02:53:23;;;;;;;23.50;13.30;;;;;;;5.18;87.73;101649.62;107602;1281;72523;-74
2022/03/17 02:55:50;;;;;;;21.20;11.50;;;;;;;5.17;87.59;101656.31;107695;1281;61173;-74
2022/03/17 02:58:17;;;;;;;22.60;13.60;;;;;;;5.18;87.58;101661.74;107744;1281;61683;-74
2022/03/17 03:01:04;;;;;;;21.60;11.90;;;;;;;5.17;87.61;101658.64;107697;1280;75136;-74
2022/03/17 03:03:31;;;;;;;20.30;11.90;;;;;;;5.17;87.79;101653.88;107742;1281;72489;-74
2022/03/17 03:05:58;;;;;;;22.20;13.30;;;;;;;5.16;87.99;101650.67;107526;1281;73221;-74
2022/03/17 03:08:45;;;;;;;21.80;12.30;;;;;;;5.16;88.15;101644.64;107726;1281;61488;-75
2022/03/17 03:11:25;;;;;;;23.80;12.70;;;;;;;5.16;88.32;101645.02;107605;1281;60768;-75
2022/03/17 03:13:52;;;;;;;22.60;12.30;;;;;;;5.16;88.07;101648.54;107506;1282;74167;-74
2022/03/17 03:16:19;;;;;;;21.00;11.90;;;;;;;5.16;88.30;101643.79;107681;1280;71515;-74
2022/03/17 03:18:45;;;;;;;21.70;12.00;;;;;;;5.16;88.30;101637.67;107616;1281;74050;-74
2022/03/17 03:21:13;;;;;;;22.00;12.20;;;;;;;5.15;88.26;101647.90;107744;1279;62502;-74
2022/03/17 03:23:39;;;;;;;25.10;13.10;;;;;;;5.15;88.31;101638.59;107739;1281;60673;-74
2022/03/17 03:26:48;;;;;;;21.70;12.60;;;;;;;5.14;88.45;101640.79;107551;1281;59503;-74
2022/03/17 03:31:48;;;;;;;22.10;11.90;;;;;;;5.13;88.52;101636.98;107647;1281;75728;-75
2022/03/17 03:34:15;;;;;;;24.10;12.90;;;;;;;5.13;88.59;101636.32;107609;1281;61523;-74
2022/03/17 03:39:36;;;;;;;26.60;13.30;;;;;;;5.14;88.86;101637.29;107674;1280;75180;-74
2022/03/17 03:42:03;;;;;;;22.00;11.40;;;;;;;5.15;88.84;101635.96;107502;1281;71582;-74
2022/03/17 03:44:30;;;;;;;21.70;12.20;;;;;;;5.17;89.05;101630.26;107637;1281;74226;-74
2022/03/17 03:47:00;;;;;;;23.50;12.20;;;;;;;5.19;88.97;101631.81;107710;1281;61291;-74
2022/03/17 03:49:26;;;;;;;29.10;15.00;;;;;;;5.21;89.03;101629.57;107703;1281;60427;-74
2022/03/17 03:52:01;;;;;;;30.70;14.40;;;;;;;5.23;88.97;101628.70;107735;1281;74267;-74
2022/03/17 03:54:27;;;;;;;28.30;15.20;;;;;;;5.26;88.67;101620.60;107673;1281;71312;-74
2022/03/17 03:56:59;;;;;;;23.10;12.40;;;;;;;5.28;88.90;101620.61;107590;1282;72750;-73
2022/03/17 03:59:31;;;;;;;23.50;13.10;;;;;;;5.30;88.74;101614.16;107522;1281;61386;-74
2022/03/17 04:02:00;;;;;;;25.60;14.70;;;;;;;5.31;88.87;101606.55;107327;1282;60595;-74
2022/03/17 04:04:28;;;;;;;29.40;15.70;;;;;;;5.33;88.85;101603.06;107559;1282;72702;-74
2022/03/17 04:06:58;;;;;;;27.30;14.90;;;;;;;5.34;88.95;101603.83;107570;1282;72496;-74
2022/03/17 04:09:30;;;;;;;25.80;14.90;;;;;;;5.35;88.68;101604.12;107534;1281;73575;-74
2022/03/17 04:11:59;;;;;;;25.20;14.70;;;;;;;5.37;88.81;101605.24;107146;1284;61197;-73
2022/03/17 04:14:46;;;;;;;29.60;16.00;;;;;;;5.37;88.86;101600.84;107590;1281;61018;-74
2022/03/17 04:17:14;;;;;;;24.80;13.70;;;;;;;5.39;88.81;101599.62;107583;1282;73433;-74
2022/03/17 04:19:41;;;;;;;27.30;14.20;;;;;;;5.40;88.66;101595.84;107572;1282;72894;-75
2022/03/17 04:22:10;;;;;;;26.00;14.40;;;;;;;5.42;88.79;101602.84;107592;1283;72975;-74
2022/03/17 04:24:37;;;;;;;27.50;15.00;;;;;;;5.43;88.86;101596.67;107581;1281;62259;-74
2022/03/17 04:27:05;;;;;;;24.90;13.80;;;;;;;5.45;88.63;101594.95;107543;1282;60638;-74
2022/03/17 04:29:52;;;;;;;26.30;14.10;;;;;;;5.46;88.63;101594.50;107606;1282;74860;-74
2022/03/17 04:32:26;;;;;;;27.20;14.20;;;;;;;5.48;88.69;101597.70;107519;1281;71556;-74
2022/03/17 04:34:59;;;;;;;30.20;15.30;;;;;;;5.49;88.50;101599.35;107606;1282;72742;-74
2022/03/17 04:37:26;;;;;;;29.90;15.50;;;;;;;5.51;88.27;101598.83;107572;1281;60629;-74
2022/03/17 04:39:55;;;;;;;26.40;15.20;;;;;;;5.53;88.17;101602.58;107611;1282;60699;-74
2022/03/17 04:42:29;;;;;;;28.40;15.00;;;;;;;5.54;88.14;101607.70;107549;1281;74171;-74
2022/03/17 04:44:56;;;;;;;26.70;14.90;;;;;;;5.55;87.91;101604.69;107617;1283;72861;-74
2022/03/17 04:47:22;;;;;;;33.40;15.20;;;;;;;5.57;87.82;101605.39;107318;1281;351140;-74
2022/03/17 04:49:49;;;;;;;29.10;15.40;;;;;;;5.58;87.78;101599.90;107618;1281;61402;-74
2022/03/17 04:55:05;;;;;;;27.50;15.70;;;;;;;5.59;87.87;101594.55;107591;1281;73805;-74
2022/03/17 04:57:37;;;;;;;28.00;15.00;;;;;;;5.59;87.74;101599.29;107711;1280;71218;-74
2022/03/17 05:00:04;;;;;;;27.80;15.60;;;;;;;5.59;87.61;101600.14;107668;1281;73358;-73
2022/03/17 05:02:31;;;;;;;30.00;15.60;;;;;;;5.60;87.74;101600.98;107633;1281;61547;-74
2022/03/17 05:04:58;;;;;;;25.40;14.10;;;;;;;5.60;87.62;101598.81;107553;1281;60470;-74
2022/03/17 05:07:24;;;;;;;26.90;15.40;;;;;;;5.61;87.86;101603.70;107618;1282;75185;-74
2022/03/17 05:09:51;;;;;;;27.10;15.20;;;;;;;5.61;87.66;101605.58;107670;1281;72457;-73
2022/03/17 05:12:18;;;;;;;24.60;14.30;;;;;;;5.61;88.04;101610.17;107634;1280;72943;-74
2022/03/17 05:14:55;;;;;;;27.10;14.70;;;;;;;5.60;88.22;101613.39;107612;1282;60849;-74
2022/03/17 05:17:21;;;;;;;27.70;14.60;;;;;;;5.59;88.30;101614.00;107690;1279;60698;-73
2022/03/17 05:19:48;;;;;;;25.20;14.50;;;;;;;5.59;88.34;101613.00;107586;1281;75777;-73
2022/03/17 05:22:15;;;;;;;28.30;15.90;;;;;;;5.58;88.50;101615.51;107752;1280;58308;-73
2022/03/17 05:24:42;;;;;;;29.00;16.20;;;;;;;5.56;88.72;101614.73;107591;1281;73180;-73
2022/03/17 05:27:08;;;;;;;28.60;13.80;;;;;;;5.57;88.67;101618.56;107729;1279;61401;-75
2022/03/17 05:29:35;;;;;;;24.80;14.60;;;;;;;5.58;89.35;101621.45;107593;1281;61660;-68
2022/03/17 05:32:01;;;;;;;25.70;14.90;;;;;;;5.60;89.09;101626.02;107744;1281;58651;-69
2022/03/17 05:34:29;;;;;;;24.50;13.70;;;;;;;5.64;88.69;101632.60;107623;1281;71405;-69
2022/03/17 05:36:56;;;;;;;27.00;13.90;;;;;;;5.67;88.79;101635.85;107569;1282;59279;-70
2022/03/17 05:39:25;;;;;;;26.00;14.00;;;;;;;5.71;88.60;101641.69;107721;1279;58360;-73
2022/03/17 05:41:51;;;;;;;22.60;13.20;;;;;;;5.76;88.50;101643.75;107751;1280;61757;-73
2022/03/17 05:44:18;;;;;;;23.90;11.70;;;;;;;5.80;88.06;101646.05;107712;1281;75628;-73
2022/03/17 05:46:45;;;;;;;28.20;14.60;;;;;;;5.86;87.93;101642.64;107716;1281;72379;-73
2022/03/17 05:49:12;;;;;;;25.30;14.10;;;;;;;5.91;87.45;101643.23;107603;1281;72935;-73
2022/03/17 05:51:39;;;;;;;25.20;14.00;;;;;;;5.97;87.24;101646.33;107591;1282;62813;-73
2022/03/17 05:54:06;;;;;;;29.00;14.10;;;;;;;6.02;87.02;101648.78;107609;1281;60928;-73
2022/03/17 05:56:35;;;;;;;26.50;14.80;;;;;;;6.06;86.76;101649.48;107670;1281;75517;-73
2022/03/17 05:59:02;;;;;;;28.90;15.20;;;;;;;6.10;86.46;101651.29;107694;1279;71279;-73
2022/03/17 06:01:29;;;;;;;28.10;14.80;;;;;;;6.15;86.65;101653.34;107637;1281;73358;-73
2022/03/17 06:03:57;;;;;;;21.70;13.00;;;;;;;6.24;86.33;101654.38;107747;1281;62340;-73
2022/03/17 06:06:24;;;;;;;27.00;14.50;;;;;;;6.28;85.52;101656.71;107744;1281;59953;-73
2022/03/17 06:08:50;;;;;;;22.00;14.00;;;;;;;6.30;85.46;101657.42;107764;1279;75196;-73
2022/03/17 06:11:18;;;;;;;27.40;14.80;;;;;;;6.32;85.17;101657.27;107614;1282;70914;-73
2022/03/17 06:13:44;;;;;;;26.70;15.80;;;;;;;6.32;85.06;101658.45;107765;1279;73978;-73
2022/03/17 06:16:13;;;;;;;27.30;14.90;;;;;;;6.32;84.83;101664.80;107791;1279;62531;-73
2022/03/17 06:18:51;;;;;;;31.70;17.50;;;;;;;6.33;84.81;101675.11;107732;1281;60892;-73
2022/03/17 06:21:18;;;;;;;25.30;13.60;;;;;;;6.33;84.75;101671.75;107656;1281;75011;-73
2022/03/17 06:23:44;;;;;;;28.80;15.70;;;;;;;6.34;84.82;101676.79;107659;1280;72484;-73
2022/03/17 06:26:11;;;;;;;23.30;12.50;;;;;;;6.35;84.78;101673.55;107801;1281;72938;-73
2022/03/17 06:28:38;;;;;;;26.90;15.80;;;;;;;6.37;84.56;101677.27;107675;1281;60163;-74
2022/03/17 06:31:05;;;;;;;24.10;15.00;;;;;;;6.38;84.60;101678.70;107610;1281;60885;-73
2022/03/17 06:33:31;;;;;;;28.00;16.40;;;;;;;6.40;84.61;101677.87;107545;1281;75022;-72
2022/03/17 06:35:58;;;;;;;19.90;11.80;;;;;;;6.43;84.88;101681.30;107883;1280;72043;-72
2022/03/17 06:38:25;;;;;;;26.30;14.50;;;;;;;6.45;84.94;101680.61;107720;1282;73117;-72
2022/03/17 06:40:52;;;;;;;31.50;18.60;;;;;;;6.47;85.24;101680.98;107855;1281;62456;-72
2022/03/17 06:43:18;;;;;;;21.80;12.80;;;;;;;6.49;85.08;101676.96;107738;1282;61667;-71
2022/03/17 06:45:45;;;;;;;33.80;17.50;;;;;;;6.52;85.50;101677.97;107718;1281;58410;-71
2022/03/17 06:48:12;;;;;;;27.10;15.40;;;;;;;6.56;85.30;101678.94;107638;1282;70414;-71
2022/03/17 06:50:38;;;;;;;26.10;14.10;;;;;;;6.58;85.52;101681.75;107670;1281;74163;-74
2022/03/17 06:53:05;;;;;;;23.50;13.80;;;;;;;6.60;85.60;101687.87;107515;1282;61300;-72
2022/03/17 06:55:33;;;;;;;24.30;16.20;;;;;;;6.62;85.58;101687.03;107605;1282;58221;-72
2022/03/17 06:58:02;;;;;;;26.40;15.10;;;;;;;6.65;85.47;101689.45;107870;1281;74099;-73
2022/03/17 07:00:28;;;;;;;23.60;14.20;;;;;;;6.69;85.40;101692.08;107637;1281;71375;-72
2022/03/17 07:02:55;;;;;;;25.10;15.00;;;;;;;6.75;85.45;101694.91;107883;1281;73024;-72
2022/03/17 07:05:22;;;;;;;25.30;15.10;;;;;;;6.82;85.37;101696.96;107679;1281;61170;-72
2022/03/17 07:07:48;;;;;;;25.80;15.40;;;;;;;6.90;85.15;101694.16;107907;1281;58347;-72
2022/03/17 07:10:15;;;;;;;22.10;13.20;;;;;;;6.98;84.84;101699.35;107836;1280;75271;-73
2022/03/17 07:12:44;;;;;;;22.40;13.60;;;;;;;7.06;84.62;101705.42;107942;1280;71354;-72
2022/03/17 07:15:12;;;;;;;22.80;14.70;;;;;;;7.14;84.41;101695.05;107662;1281;74078;-72
2022/03/17 07:17:40;;;;;;;26.70;15.60;;;;;;;7.25;84.36;101701.55;107917;1280;62473;-73
2022/03/17 07:20:09;;;;;;;24.90;14.00;;;;;;;7.35;83.49;101699.27;107491;1282;60888;-72
2022/03/17 07:22:36;;;;;;;21.70;13.30;;;;;;;7.45;82.96;101699.51;107652;1281;74262;-73
2022/03/17 07:25:03;;;;;;;27.10;15.40;;;;;;;7.55;82.50;101703.73;107706;1281;72666;-73
2022/03/17 07:27:32;;;;;;;25.60;14.20;;;;;;;7.65;81.83;101710.30;107607;1282;73119;-73
2022/03/17 07:29:58;;;;;;;24.70;15.60;;;;;;;7.75;81.86;101706.98;107648;1281;61699;-73
2022/03/17 07:32:30;;;;;;;23.40;14.00;;;;;;;7.85;81.15;101713.20;107735;1281;60675;-73
2022/03/17 07:34:56;;;;;;;23.90;15.50;;;;;;;7.94;80.05;101715.60;107667;1281;74210;-73
2022/03/17 07:37:23;;;;;;;22.30;13.90;;;;;;;8.03;78.52;101710.38;107675;1281;58581;-73
2022/03/17 07:39:50;;;;;;;28.40;16.10;;;;;;;8.13;78.14;101710.85;107889;1281;58260;-74
2022/03/17 07:42:16;;;;;;;25.00;14.70;;;;;;;8.25;77.09;101715.83;107935;1281;58213;-72
2022/03/17 07:44:48;;;;;;;23.30;15.70;;;;;;;8.37;75.59;101718.14;107899;1281;60599;-73
2022/03/17 07:47:14;;;;;;;31.20;18.20;;;;;;;8.50;74.34;101720.70;107961;1280;74341;-73
2022/03/17 07:49:42;;;;;;;25.80;15.90;;;;;;;8.64;73.85;101715.30;107886;1281;71277;-72
2022/03/17 07:52:09;;;;;;;23.60;15.20;;;;;;;8.75;72.86;101718.55;107963;1279;74371;-72
2022/03/17 07:54:36;;;;;;;24.40;15.00;;;;;;;8.84;72.14;101726.19;107770;1281;62091;-72
2022/03/17 07:57:03;;;;;;;23.00;14.50;;;;;;;8.92;71.68;101730.72;107851;1281;60450;-72
2022/03/17 07:59:31;;;;;;;23.60;15.60;;;;;;;9.00;71.29;101735.50;107754;1281;74298;-71
2022/03/17 08:01:57;;;;;;;26.30;16.10;;;;;;;9.06;70.44;101734.58;107761;1281;71206;-72
2022/03/17 08:04:25;;;;;;;25.20;15.10;;;;;;;9.12;69.74;101736.84;107667;1281;72730;-73
2022/03/17 08:07:00;;;;;;;26.50;15.90;;;;;;;9.16;69.00;101743.05;107725;1281;64279;-73
2022/03/17 08:09:27;;;;;;;25.30;15.00;;;;;;;9.20;69.39;101743.55;107723;1281;61700;-72
2022/03/17 08:11:54;;;;;;;23.80;16.10;;;;;;;9.23;69.24;101751.94;107697;1281;74127;-74
2022/03/17 08:14:21;;;;;;;22.80;14.70;;;;;;;9.27;68.93;101748.95;107762;1281;72427;-72
2022/03/17 08:16:48;;;;;;;25.40;15.90;;;;;;;9.31;68.74;101749.45;107753;1282;72960;-73
2022/03/17 08:19:14;;;;;;;25.30;17.30;;;;;;;9.34;68.25;101750.03;107716;1281;61676;-73
2022/03/17 08:21:41;;;;;;;28.40;18.00;;;;;;;9.37;68.24;101754.16;107771;1281;60408;-72
2022/03/17 08:24:08;;;;;;;28.50;16.30;;;;;;;9.38;67.43;101755.29;107534;1282;75183;-73
2022/03/17 08:26:37;;;;;;;27.40;16.10;;;;;;;9.36;67.29;101753.17;107476;1281;72433;-72
2022/03/17 08:29:04;;;;;;;27.50;16.70;;;;;;;9.33;67.30;101755.42;107537;1282;74053;-73
2022/03/17 08:31:31;;;;;;;26.90;16.70;;;;;;;9.30;66.84;101755.75;107550;1281;60898;-73
2022/03/17 08:34:00;;;;;;;24.10;15.20;;;;;;;9.28;66.60;101758.90;107727;1281;62022;-73
2022/03/17 08:36:27;;;;;;;27.20;15.30;;;;;;;9.27;66.83;101757.27;107735;1282;74165;-74
2022/03/17 08:38:54;;;;;;;25.00;17.40;;;;;;;9.26;66.51;101763.54;107814;1281;73621;-72
2022/03/17 08:41:21;;;;;;;27.10;16.80;;;;;;;9.25;66.55;101766.36;107556;1281;72955;-72
2022/03/17 08:43:48;;;;;;;17.20;12.00;;;;;;;9.26;66.63;101768.59;107799;1281;61723;-72
2022/03/17 08:49:21;;;;;;;25.20;16.20;;;;;;;9.26;66.77;101775.71;107771;1280;75014;-73
2022/03/17 08:51:54;;;;;;;28.10;15.20;;;;;;;9.25;67.47;101778.07;107740;1281;72345;-72
2022/03/17 08:54:23;;;;;;;23.80;15.50;;;;;;;9.24;68.37;101779.94;107903;1281;74177;-72
2022/03/17 08:57:00;;;;;;;22.90;15.30;;;;;;;9.20;68.73;101781.87;107899;1279;61766;-72
2022/03/17 08:59:30;;;;;;;30.00;17.40;;;;;;;9.14;69.29;101790.11;108003;1279;60618;-71
2022/03/17 09:01:58;;;;;;;21.50;14.40;;;;;;;9.10;69.24;101790.39;107668;1281;75211;-72
2022/03/17 09:04:25;;;;;;;29.20;17.50;;;;;;;9.04;69.91;101790.55;108005;1279;71421;-72
2022/03/17 09:06:51;;;;;;;23.50;15.30;;;;;;;9.00;70.37;101795.34;107549;1282;73081;-71
2022/03/17 09:09:20;;;;;;;27.20;16.80;;;;;;;8.95;70.62;101797.44;107960;1279;61240;-71
2022/03/17 09:11:47;;;;;;;26.90;16.90;;;;;;;8.92;70.37;101796.73;107970;1279;61330;-72
2022/03/17 09:14:14;;;;;;;25.00;15.30;;;;;;;8.89;70.50;101797.30;107764;1281;75364;-71
2022/03/17 09:16:41;;;;;;;27.40;16.90;;;;;;;8.87;70.15;101798.55;107826;1281;71505;-72
2022/03/17 09:19:10;;;;;;;19.70;12.80;;;;;;;8.87;70.32;101801.23;107612;1280;73975;-71
2022/03/17 09:21:37;;;;;;;26.40;15.20;;;;;;;8.88;70.58;101797.14;107608;1280;63303;-72
2022/03/17 09:24:04;;;;;;;24.60;16.30;;;;;;;8.89;70.63;101800.92;107984;1281;60419;-73
2022/03/17 09:26:31;;;;;;;23.40;15.50;;;;;;;8.89;70.80;101804.77;108017;1279;74165;-73
2022/03/17 09:28:58;;;;;;;25.90;14.40;;;;;;;8.90;70.70;101802.00;107975;1281;71491;-71
2022/03/17 09:31:25;;;;;;;25.20;16.80;;;;;;;8.92;70.38;101809.98;107954;1279;73002;-72
2022/03/17 09:33:53;;;;;;;27.50;17.80;;;;;;;8.93;70.78;101814.25;107988;1281;62292;-72
2022/03/17 09:36:20;;;;;;;26.20;16.40;;;;;;;8.94;71.37;101816.67;107691;1279;60360;-73
2022/03/17 09:41:33;;;;;;;;;;;;;;;8.92;72.24;101828.83;107674;1281;72648;-73
2022/03/17 09:44:06;;;;;;;28.00;17.50;;;;;;;8.88;73.38;101839.74;107959;1279;72156;-73
2022/03/17 09:46:35;;;;;;;26.90;16.20;;;;;;;8.82;75.12;101848.79;107967;1281;62126;-73
2022/03/17 09:49:04;;;;;;;27.40;18.60;;;;;;;8.75;76.24;101856.09;107974;1279;60676;-74
2022/03/17 09:51:31;;;;;;;27.40;17.10;;;;;;;8.68;77.74;101858.16;107882;1281;74199;-75
2022/03/17 09:54:00;;;;;;;22.80;14.20;;;;;;;8.57;79.55;101859.98;107931;1279;72349;-74
2022/03/17 09:56:28;;;;;;;26.50;17.70;;;;;;;8.47;80.54;101869.61;107548;1282;74028;-73
2022/03/17 09:58:56;;;;;;;33.20;18.90;;;;;;;8.37;81.58;101870.61;107692;1281;63460;-74
2022/03/17 10:01:25;;;;;;;30.50;20.10;;;;;;;8.27;83.00;101869.33;107866;1280;61504;-73
2022/03/17 10:04:00;;;;;;;28.00;18.00;;;;;;;8.18;84.05;101875.04;107539;1282;74098;-74
2022/03/17 10:06:28;;;;;;;29.40;18.70;;;;;;;8.10;85.01;101878.67;107904;1280;70429;-73
2022/03/17 10:08:57;;;;;;;30.20;18.40;;;;;;;8.04;86.10;101879.23;107868;1281;74288;-72
2022/03/17 10:11:30;;;;;;;34.40;20.60;;;;;;;7.97;87.07;101882.45;107623;1282;61608;-72
2022/03/17 10:14:03;;;;;;;33.80;20.00;;;;;;;7.92;88.22;101888.38;107832;1281;60656;-71
2022/03/17 10:16:30;;;;;;;30.30;18.20;;;;;;;7.86;89.05;101891.17;107758;1282;75234;-72
2022/03/17 10:19:08;;;;;;;33.30;19.30;;;;;;;7.82;89.88;101897.84;107584;1282;71501;-72
2022/03/17 10:21:48;;;;;;;;;;;;;;;;;;;;;
2022/03/17 10:24:16;;;;;;;30.80;21.10;;;;;;;-22.76;92.55;101917.40;107744;1281;61415;-72
2022/03/17 10:26:51;;;;;;;35.80;19.60;;;;;;;-80.45;76.21;88419.33;107075;1281;1001355;-70
2022/03/17 10:29:21;;;;;;;32.50;19.60;;;;;;;-19.42;72.86;81543.27;106937;1281;1002570;-70
2022/03/17 10:32:12;;;;;;;29.50;20.00;;;;;;;7.72;91.93;101929.98;107814;1281;71480;-70
2022/03/17 10:34:45;;;;;;;38.60;22.00;;;;;;;7.66;92.07;101939.11;107518;1282;74104;-70
2022/03/17 10:37:13;;;;;;;29.80;19.00;;;;;;;7.64;92.92;101948.20;107859;1281;61560;-71
2022/03/17 10:39:42;;;;;;;28.90;18.70;;;;;;;7.62;93.53;101959.70;107768;1281;58868;-73
2022/03/17 10:42:31;;;;;;;37.00;21.60;;;;;;;7.61;93.93;101957.63;107825;1281;74128;-74
2022/03/17 10:45:08;;;;;;;36.00;21.60;;;;;;;7.61;94.21;101966.27;107724;1282;71539;-74
2022/03/17 10:47:40;;;;;;;35.20;21.80;;;;;;;7.60;94.82;101973.36;107845;1281;75363;-74
2022/03/17 10:50:19;;;;;;;34.40;21.60;;;;;;;7.61;95.21;101981.08;107427;1284;62210;-73
2022/03/17 10:52:51;;;;;;;32.30;18.40;;;;;;;7.62;95.77;101983.30;107795;1281;62858;-72
2022/03/17 10:55:39;;;;;;;36.70;21.20;;;;;;;7.61;95.97;101994.80;107606;1282;74223;-73
2022/03/17 10:58:13;;;;;;;33.90;19.60;;;;;;;7.60;96.63;102004.71;107531;1283;72494;-72
2022/03/17 11:00:51;;;;;;;44.60;22.30;;;;;;;7.59;96.93;102007.63;107778;1282;73093;-72
2022/03/17 11:03:23;;;;;;;38.30;22.10;;;;;;;7.56;96.97;102019.30;107786;1281;61151;-72
2022/03/17 11:05:53;;;;;;;31.60;18.60;;;;;;;7.52;98.55;102027.73;107594;1281;59216;-72
2022/03/17 11:08:31;;;;;;;27.80;15.80;;;;;;;7.47;99.84;102039.34;107812;1279;73966;-74
2022/03/17 11:11:22;;;;;;;28.30;16.50;;;;;;;7.44;100.00;102055.30;107590;1282;72774;-72
2022/03/17 11:14:09;;;;;;;10.90;7.10;;;;;;;7.35;100.00;102070.73;107347;1282;72988;-73
2022/03/17 11:16:51;;;;;;;;;;;;;;;;;;;;;
2022/03/17 11:19:45;;;;;;;12.10;5.70;;;;;;;7.17;100.00;102075.48;107796;1280;60618;-73
2022/03/17 11:23:03;;;;;;;13.60;7.20;;;;;;;7.10;100.00;102077.07;107434;1282;74259;-73
2022/03/17 11:26:10;;;;;;;;;;;;;;;;;;;;;
2022/03/17 11:29:27;;;;;;;9.60;6.10;;;;;;;6.99;100.00;102081.66;107820;1281;72809;-73
2022/03/17 11:32:46;;;;;;;11.00;5.10;;;;;;;6.96;100.00;102086.84;107729;1281;62690;-73
2022/03/17 11:36:13;;;;;;;10.40;5.50;;;;;;;6.93;100.00;102087.36;106849;1281;62243;-73
2022/03/17 11:39:12;;;;;;;;;;;;;;;;;;;;;
2022/03/17 11:42:22;;;;;;;13.80;5.30;;;;;;;6.94;100.00;102093.42;107589;1280;71917;-71
2022/03/17 11:45:44;;;;;;;;;;;;;;;;;;;;;
2022/03/17 11:48:57;;;;;;;11.80;5.60;;;;;;;6.96;100.00;102110.91;107618;1281;62291;-72
2022/03/17 11:51:45;;;;;;;10.50;6.20;;;;;;;6.96;100.00;102111.95;106946;1284;60634;-71
2022/03/17 11:54:12;;;;;;;12.00;6.60;;;;;;;6.99;100.00;102109.82;107405;1282;75174;-71
2022/03/17 11:57:13;;;;;;;10.40;5.40;;;;;;;7.00;100.00;102114.98;107735;1281;71424;-72
2022/03/17 12:00:00;;;;;;;7.30;3.90;;;;;;;7.01;100.00;102122.50;107616;1282;74249;-72
2022/03/17 12:02:34;;;;;;;9.20;5.30;;;;;;;7.01;100.00;102127.04;107512;1282;62155;-73